Logo AVAMET
Benvolgut visitant, si us plau, ingressa Recuperar contrasenya

Xixona castell

Dades diàries. Acumulats / Últims 30 dies disponibles

Data Temperatura (°C) Humitat rel. (%) Pressió rel. (hPa) Vent (km/h) Precipitació
Mínima Mitjana Màxima Amplitud
tèrmica
Mínima Mitjana Màxima Mínima Mitjana Màxima Predom. Mitjana Ràfega
màxima
Total
(mm)
Índex-n
Mínima Mitjana Màxima Mínima Mitjana Màxima n
0 a 1
P0 max
mm 5'
Dades mensuals acumulades fins l'últim dia disponible
05/2019 8,5 12,9 18,3 17,0 16,5 21,1 27,0 18,5 0 60 89 1.001 1.013 1.023   7,3 96,6 4,8
Dades anuals acumulades fins l'últim dia disponible
2019 1,4 9,0 18,3 12,6 8,8 16,6 27,0 25,6 0 57 90 993 1.018 1.034   10,8 120,7 114,2
Últims 30 dies disponibles
24-05-2019 13,7     17,6     20,2 6,5 33 54 83 1.011 1.012 1.014 NE 6,0 38,6 4,2 0,33 1,10
23-05-2019 13,8     19,6     25,4 11,6 27 40 60 1.014 1.016 1.018 NW 5,8 27,4 0,0
22-05-2019 15,3     19,7     22,6 7,3 0 51 73 1.016 1.017 1.017 SSE 4,2 27,4 0,0
21-05-2019 14,1     17,7     21,8 7,7 0 66 74 1.014 1.015 1.016 SSE 2,9 29,0 0,0
20-05-2019 12,1     16,4     20,1 8,0 0 59 74 1.010 1.012 1.013 S 3,7 29,0 0,0
19-05-2019 10,8     14,9     17,6 6,8 0 64 79 1.009 1.009 1.010 SSE 4,0 29,0 0,0
18-05-2019 13,9     15,6     17,9 4,0 0 54 71 1.006 1.007 1.009 SSE 3,1 30,6 0,0
17-05-2019 12,6     16,4     19,6 7,0 35 49 84 1.001 1.005 1.009 ONO 23,4 96,6 0,0
16-05-2019 13,3     16,2     20,3 7,0 47 70 84 1.005 1.010 1.012 SSE 4,7 29,0 0,0
15-05-2019 12,5     18,0     24,0 11,5 39 57 79 1.009 1.011 1.015 SSE 4,5 20,9 0,0
14-05-2019 9,9     15,2     20,7 10,8 42 59 80 1.015 1.018 1.020 SSE 5,6 29,0 0,0
13-05-2019 11,8     15,1     19,9 8,1 56 72 84 1.018 1.019 1.020 SSE 4,0 27,4 0,0
12-05-2019 12,8     16,8     20,3 7,5 54 68 82 1.019 1.021 1.023 SSE 4,5 27,4 0,0
11-05-2019 18,3     22,6     26,5 8,2 43 54 70 1.014 1.016 1.020 SSE 9,7 37,0 0,0
10-05-2019 18,3     21,7     27,0 8,7 38 58 70 1.011 1.012 1.014 NW 15,1 82,1 0,0
09-05-2019 17,2     19,6     22,5 5,3 54 63 69 1.010 1.012 1.013 WNW 16,4 80,5 0,0
08-05-2019 17,2     21,4     26,2 9,0 35 48 66 1.009 1.011 1.015 WNW 19,2 70,8 0,0
07-05-2019 10,7     15,9     20,8 10,1 66 77 89 1.014 1.016 1.018 SSE 3,5 25,7 0,0
06-05-2019 10,0     14,1     18,6 8,6 67 75 83 1.015 1.017 1.019 SSE 4,2 29,0 0,0
05-05-2019 10,4     14,5     18,2 7,8 43 63 81 1.011 1.014 1.016 SSE 7,1 35,4 0,0
04-05-2019 8,5     12,6     16,5 8,0 46 70 84 1.011 1.012 1.013 SSE 5,5 32,2 0,0
03-05-2019 10,2     14,3     18,6 8,4 31 56 83 1.007 1.010 1.013 NW 6,8 41,8 0,6
02-05-2019 12,5     16,6     22,1 9,6 35 56 73 1.011 1.013 1.014 WSW 7,1 35,4 0,0
01-05-2019 10,4     14,5     19,6 9,2 37 63 86 1.013 1.014 1.016 SSE 3,7 24,1 0,0
30-04-2019 10,1     13,4     17,7 7,6 67 80 89 1.015 1.016 1.018 SSE 3,7 22,5 0,0
29-04-2019 10,4     14,3     17,9 7,5 52 68 87 1.016 1.018 1.019 SSE 5,0 24,1 0,0
28-04-2019 12,2     15,8     19,7 7,5 35 51 66 1.018 1.021 1.024 SSE 6,4 25,7 0,0
27-04-2019 11,4     15,0     18,9 7,5 44 58 76 1.023 1.024 1.025 SSE 4,3 24,1 0,0
26-04-2019 9,8     13,8     19,7 9,9 36 55 68 1.016 1.021 1.025 WNW 19,8 91,7 0,0
25-04-2019 10,4     14,6     18,1 7,7 45 63 82 1.010 1.012 1.017 NW 13,2 70,8 0,0
Últims 13 mesos disponibles
04/2019 6,4 9,7 12,5 13,1 12,8 17,0 24,6 18,2 36 65 84 999 1.012 1.024 SSE 13,1 103,0 87,0
03/2019 4,4 9,1 13,6 12,9 9,9 16,9 23,5 19,1 26 52 78 1.010 1.022 1.029 NW 9,6 106,2 19,8
02/2019 1,4 7,2 13,4 11,1 9,5 15,3 22,1 20,7 23 53 75 996 1.024 1.032 NW 9,4 114,3 1,4
01/2019 2,1 6,6 10,4 9,9 8,8 13,5 18,2 16,1 30 57 78 1.003 1.018 1.030 NW 13,7 120,7 1,2
12/2018 5,3 10,6 15,7 14,9 13,2 19,1 23,4 18,1 33 53 71 1.008 1.022 1.026 NW 8,9 106,2 29,6
11/2018 8,1 10,5 14,7 13,1 12,2 16,4 20,1 12,0 30 63 78 999 1.014 1.021 NW 11,2 103,0 19,6
10/2018 4,9 13,5 17,8 16,7 11,1 20,7 25,0 20,1 42 65 76 998 1.013 1.024 NW 9,0 107,8 38,2
09/2018 13,1 18,8 22,0 22,0 21,5 26,3 28,9 15,8 55 70 81 1.011 1.017 1.026 SSE 6,6 62,8 26,2
08/2018 16,8 21,1 24,8 24,8 25,6 29,2 33,4 16,6 38 63 82 1.011 1.015 1.019 SSE 6,0 53,1 12,4
07/2018 17,8 20,7 23,5 25,1 26,7 29,7 33,4 15,6 7,5 90,1 0,0
06/2018 11,5 16,9 19,8 21,0 21,1 25,4 29,1 17,6 7,3 83,7 40,8
05/2018 7,0 12,5 16,3 16,6 15,5 21,2 27,1 20,1 6,8 83,7 20,2
04/2018 3,9 10,4 16,4 14,7 10,0 18,8 25,8 21,9 13,2 114,3 32,6
Tots els anys disponibles
2018 1,1 13,3 24,8 16,8 5,9 20,9 33,4 32,3 30 64 82 998 1.016 1.026 NW 10,1 119,1 312,4
2017 -0,4 13,1 25,9 16,7 4,3 20,9 34,2 34,6 9,0 123,9 219,0
2016 2,6 13,2 28,0 16,5 8,9 20,5 37,3 34,7 9,7 132,0 272,6
Temperatura (°C)
Humitat relativa (%)
Velocitat del vent i ràfega màxima (km/h)
Direcció del vent (°)
Pressió (hPa)
Precipitació (mm)
Nota sobre les dades: s'avisa a l'usuari de la provisionalitat i no oficialitat d'aquestes dades
Logo AVAMET blanc
Web allotjada a Sollutia
Llicència de Creative CommonsLa web d'AVAMET i els seus continguts estan subjectes a una llicència de
Reconeixement - No Comercial - Compartir igual
Properes estacions: Altea - Club Nàutic d'Altea (Soci), Ontinyent - El Pilar (Soci), Ares del Maestrat (Ajuntament Soci), Catadau - L'Altet (Inforatge)     - - - - -      Últimes estacions: Asp - Poliesportiu (Soci), Jacarilla - centro (MeteOrihuela), Elx - Maitino/Vallverda/Velarde/Matola/Ferriol (Soci TiempoElche.com), Orihuela - Playa Flamenca (MeteOrihuela), - - -